sensor_id;sensor_type;location;lat;lon;timestamp;temperature;humidity
24802;DHT22;12898;50.520;12.152;2024-02-26T00:01:43;-2.40;99.90
24802;DHT22;12898;50.520;12.152;2024-02-26T00:04:09;-2.50;99.90
24802;DHT22;12898;50.520;12.152;2024-02-26T00:06:36;-2.50;99.90
24802;DHT22;12898;50.520;12.152;2024-02-26T00:09:02;-2.50;99.90
24802;DHT22;12898;50.520;12.152;2024-02-26T00:11:31;-2.60;99.90
24802;DHT22;12898;50.520;12.152;2024-02-26T00:13:57;-2.60;99.90
24802;DHT22;12898;50.520;12.152;2024-02-26T00:16:23;-2.70;99.90
24802;DHT22;12898;50.520;12.152;2024-02-26T00:18:49;-2.70;99.90
24802;DHT22;12898;50.520;12.152;2024-02-26T00:21:15;-2.70;99.90
24802;DHT22;12898;50.520;12.152;2024-02-26T00:23:41;-2.70;99.90
24802;DHT22;12898;50.520;12.152;2024-02-26T00:26:07;-2.70;99.90
24802;DHT22;12898;50.520;12.152;2024-02-26T00:28:33;-2.80;99.90
24802;DHT22;12898;50.520;12.152;2024-02-26T00:30:59;-2.80;99.90
24802;DHT22;12898;50.520;12.152;2024-02-26T00:33:25;-2.80;99.90
24802;DHT22;12898;50.520;12.152;2024-02-26T00:35:50;-2.80;99.90
24802;DHT22;12898;50.520;12.152;2024-02-26T00:38:16;-2.80;99.90
24802;DHT22;12898;50.520;12.152;2024-02-26T00:40:42;-2.80;99.90
24802;DHT22;12898;50.520;12.152;2024-02-26T00:43:07;-2.70;99.90
24802;DHT22;12898;50.520;12.152;2024-02-26T00:45:33;-2.70;99.90
24802;DHT22;12898;50.520;12.152;2024-02-26T00:47:59;-2.80;99.90
24802;DHT22;12898;50.520;12.152;2024-02-26T00:50:31;-2.80;99.90
24802;DHT22;12898;50.520;12.152;2024-02-26T00:52:57;-2.80;99.90
24802;DHT22;12898;50.520;12.152;2024-02-26T00:55:23;-2.80;99.90
24802;DHT22;12898;50.520;12.152;2024-02-26T00:57:48;-2.90;99.90
24802;DHT22;12898;50.520;12.152;2024-02-26T01:00:14;-2.90;99.90
24802;DHT22;12898;50.520;12.152;2024-02-26T01:02:41;-2.90;99.90
24802;DHT22;12898;50.520;12.152;2024-02-26T01:05:12;-2.90;99.90
24802;DHT22;12898;50.520;12.152;2024-02-26T01:07:39;-2.90;99.90
24802;DHT22;12898;50.520;12.152;2024-02-26T01:10:06;-3.00;99.90
24802;DHT22;12898;50.520;12.152;2024-02-26T01:12:33;-3.00;99.90
24802;DHT22;12898;50.520;12.152;2024-02-26T01:15:00;-3.00;99.90
24802;DHT22;12898;50.520;12.152;2024-02-26T01:17:26;-3.00;99.90
24802;DHT22;12898;50.520;12.152;2024-02-26T01:19:52;-3.00;99.90
24802;DHT22;12898;50.520;12.152;2024-02-26T01:22:19;-3.00;99.90
24802;DHT22;12898;50.520;12.152;2024-02-26T01:24:44;-3.10;99.90
24802;DHT22;12898;50.520;12.152;2024-02-26T01:27:10;-3.10;99.90
24802;DHT22;12898;50.520;12.152;2024-02-26T01:29:36;-3.10;99.90
24802;DHT22;12898;50.520;12.152;2024-02-26T01:32:02;-3.10;99.90
24802;DHT22;12898;50.520;12.152;2024-02-26T01:34:29;-3.10;99.90
24802;DHT22;12898;50.520;12.152;2024-02-26T01:36:55;-3.10;99.90
24802;DHT22;12898;50.520;12.152;2024-02-26T01:39:21;-3.10;99.90
24802;DHT22;12898;50.520;12.152;2024-02-26T01:41:47;-3.10;99.90
24802;DHT22;12898;50.520;12.152;2024-02-26T01:44:13;-3.20;99.90
24802;DHT22;12898;50.520;12.152;2024-02-26T01:46:39;-3.20;99.90
24802;DHT22;12898;50.520;12.152;2024-02-26T01:49:06;-3.20;99.90
24802;DHT22;12898;50.520;12.152;2024-02-26T01:51:33;-3.20;99.90
24802;DHT22;12898;50.520;12.152;2024-02-26T01:54:01;-3.20;99.90
24802;DHT22;12898;50.520;12.152;2024-02-26T01:56:29;-3.20;99.90
24802;DHT22;12898;50.520;12.152;2024-02-26T01:58:57;-3.20;99.90
24802;DHT22;12898;50.520;12.152;2024-02-26T02:01:27;-3.20;99.90
24802;DHT22;12898;50.520;12.152;2024-02-26T02:03:56;-3.20;99.90
24802;DHT22;12898;50.520;12.152;2024-02-26T02:06:23;-3.20;99.90
24802;DHT22;12898;50.520;12.152;2024-02-26T02:08:49;-3.20;99.90
24802;DHT22;12898;50.520;12.152;2024-02-26T02:11:16;-3.30;99.90
24802;DHT22;12898;50.520;12.152;2024-02-26T02:13:42;-3.30;99.90
24802;DHT22;12898;50.520;12.152;2024-02-26T02:16:08;-3.30;99.90
24802;DHT22;12898;50.520;12.152;2024-02-26T02:18:34;-3.30;99.90
24802;DHT22;12898;50.520;12.152;2024-02-26T02:21:01;-3.30;99.90
24802;DHT22;12898;50.520;12.152;2024-02-26T02:23:27;-3.30;99.90
24802;DHT22;12898;50.520;12.152;2024-02-26T02:25:53;-3.30;99.90
24802;DHT22;12898;50.520;12.152;2024-02-26T02:28:20;-3.30;99.90
24802;DHT22;12898;50.520;12.152;2024-02-26T02:30:47;-3.30;99.90
24802;DHT22;12898;50.520;12.152;2024-02-26T02:33:14;-3.30;99.90
24802;DHT22;12898;50.520;12.152;2024-02-26T02:35:41;-3.40;99.90
24802;DHT22;12898;50.520;12.152;2024-02-26T02:38:13;-3.30;99.90
24802;DHT22;12898;50.520;12.152;2024-02-26T02:40:39;-3.40;99.90
24802;DHT22;12898;50.520;12.152;2024-02-26T02:43:05;-3.40;99.90
24802;DHT22;12898;50.520;12.152;2024-02-26T02:45:31;-3.40;99.90
24802;DHT22;12898;50.520;12.152;2024-02-26T02:47:57;-3.40;99.90
24802;DHT22;12898;50.520;12.152;2024-02-26T02:50:22;-3.40;99.90
24802;DHT22;12898;50.520;12.152;2024-02-26T02:52:48;-3.40;99.90
24802;DHT22;12898;50.520;12.152;2024-02-26T02:55:16;-3.40;99.90
24802;DHT22;12898;50.520;12.152;2024-02-26T02:57:41;-3.50;99.90
24802;DHT22;12898;50.520;12.152;2024-02-26T03:00:11;-3.40;99.90
24802;DHT22;12898;50.520;12.152;2024-02-26T03:02:37;-3.50;99.90
24802;DHT22;12898;50.520;12.152;2024-02-26T03:05:04;-3.50;99.90
24802;DHT22;12898;50.520;12.152;2024-02-26T03:07:30;-3.60;99.90
24802;DHT22;12898;50.520;12.152;2024-02-26T03:09:56;-3.60;99.90
24802;DHT22;12898;50.520;12.152;2024-02-26T03:12:22;-3.60;99.90
24802;DHT22;12898;50.520;12.152;2024-02-26T03:14:47;-3.60;99.90
24802;DHT22;12898;50.520;12.152;2024-02-26T03:17:13;-3.60;99.90
24802;DHT22;12898;50.520;12.152;2024-02-26T03:19:39;-3.60;99.90
24802;DHT22;12898;50.520;12.152;2024-02-26T03:22:05;-3.70;99.90
24802;DHT22;12898;50.520;12.152;2024-02-26T03:24:30;-3.70;99.90
24802;DHT22;12898;50.520;12.152;2024-02-26T03:26:56;-3.70;99.90
24802;DHT22;12898;50.520;12.152;2024-02-26T03:29:22;-3.70;99.90
24802;DHT22;12898;50.520;12.152;2024-02-26T03:31:48;-3.60;99.90
24802;DHT22;12898;50.520;12.152;2024-02-26T03:34:14;-3.60;99.90
24802;DHT22;12898;50.520;12.152;2024-02-26T03:36:40;-3.60;99.90
24802;DHT22;12898;50.520;12.152;2024-02-26T03:39:06;-3.60;99.90
24802;DHT22;12898;50.520;12.152;2024-02-26T03:41:36;-3.60;99.90
24802;DHT22;12898;50.520;12.152;2024-02-26T03:44:02;-3.60;99.90
24802;DHT22;12898;50.520;12.152;2024-02-26T03:46:28;-3.60;99.90
24802;DHT22;12898;50.520;12.152;2024-02-26T03:48:54;-3.70;99.90
24802;DHT22;12898;50.520;12.152;2024-02-26T03:51:20;-3.70;99.90
24802;DHT22;12898;50.520;12.152;2024-02-26T03:53:45;-3.70;99.90
24802;DHT22;12898;50.520;12.152;2024-02-26T03:56:12;-3.70;99.90
24802;DHT22;12898;50.520;12.152;2024-02-26T03:58:39;-3.70;99.90
24802;DHT22;12898;50.520;12.152;2024-02-26T04:01:07;-3.70;99.90
24802;DHT22;12898;50.520;12.152;2024-02-26T04:03:34;-3.70;99.90
24802;DHT22;12898;50.520;12.152;2024-02-26T04:06:00;-3.70;99.90
24802;DHT22;12898;50.520;12.152;2024-02-26T04:08:26;-3.70;99.90
24802;DHT22;12898;50.520;12.152;2024-02-26T04:10:51;-3.70;99.90
24802;DHT22;12898;50.520;12.152;2024-02-26T04:13:17;-3.70;99.90
24802;DHT22;12898;50.520;12.152;2024-02-26T04:15:44;-3.70;99.90
24802;DHT22;12898;50.520;12.152;2024-02-26T04:18:10;-3.70;99.90
24802;DHT22;12898;50.520;12.152;2024-02-26T04:20:35;-3.70;99.90
24802;DHT22;12898;50.520;12.152;2024-02-26T04:23:02;-3.70;99.90
24802;DHT22;12898;50.520;12.152;2024-02-26T04:25:28;-3.70;99.90
24802;DHT22;12898;50.520;12.152;2024-02-26T04:27:54;-3.70;99.90
24802;DHT22;12898;50.520;12.152;2024-02-26T04:30:20;-3.70;99.90
24802;DHT22;12898;50.520;12.152;2024-02-26T04:32:45;-3.70;99.90
24802;DHT22;12898;50.520;12.152;2024-02-26T04:35:11;-3.70;99.90
24802;DHT22;12898;50.520;12.152;2024-02-26T04:37:37;-3.70;99.90
24802;DHT22;12898;50.520;12.152;2024-02-26T04:40:03;-3.70;99.90
24802;DHT22;12898;50.520;12.152;2024-02-26T04:42:29;-3.70;99.90
24802;DHT22;12898;50.520;12.152;2024-02-26T04:44:55;-3.70;99.90
24802;DHT22;12898;50.520;12.152;2024-02-26T04:47:21;-3.70;99.90
24802;DHT22;12898;50.520;12.152;2024-02-26T04:49:50;-3.70;99.90
24802;DHT22;12898;50.520;12.152;2024-02-26T04:52:16;-3.60;99.90
24802;DHT22;12898;50.520;12.152;2024-02-26T04:54:42;-3.60;99.90
24802;DHT22;12898;50.520;12.152;2024-02-26T04:57:07;-3.60;99.90
24802;DHT22;12898;50.520;12.152;2024-02-26T04:59:33;-3.70;99.90
24802;DHT22;12898;50.520;12.152;2024-02-26T05:01:59;-3.60;99.90
24802;DHT22;12898;50.520;12.152;2024-02-26T05:04:24;-3.70;99.90
24802;DHT22;12898;50.520;12.152;2024-02-26T05:06:50;-3.70;99.90
24802;DHT22;12898;50.520;12.152;2024-02-26T05:09:16;-3.70;99.90
24802;DHT22;12898;50.520;12.152;2024-02-26T05:11:42;-3.70;99.90
24802;DHT22;12898;50.520;12.152;2024-02-26T05:14:08;-3.70;99.90
24802;DHT22;12898;50.520;12.152;2024-02-26T05:16:34;-3.70;99.90
24802;DHT22;12898;50.520;12.152;2024-02-26T05:18:59;-3.70;99.90
24802;DHT22;12898;50.520;12.152;2024-02-26T05:21:25;-3.70;99.90
24802;DHT22;12898;50.520;12.152;2024-02-26T05:23:51;-3.70;99.90
24802;DHT22;12898;50.520;12.152;2024-02-26T05:26:23;-3.70;99.90
24802;DHT22;12898;50.520;12.152;2024-02-26T05:28:49;-3.70;99.90
24802;DHT22;12898;50.520;12.152;2024-02-26T05:31:16;-3.60;99.90
24802;DHT22;12898;50.520;12.152;2024-02-26T05:33:42;-3.60;99.90
24802;DHT22;12898;50.520;12.152;2024-02-26T05:36:08;-3.60;99.90
24802;DHT22;12898;50.520;12.152;2024-02-26T05:38:34;-3.60;99.90
24802;DHT22;12898;50.520;12.152;2024-02-26T05:41:00;-3.50;99.90
24802;DHT22;12898;50.520;12.152;2024-02-26T05:43:26;-3.50;99.90
24802;DHT22;12898;50.520;12.152;2024-02-26T05:45:52;-3.50;99.90
24802;DHT22;12898;50.520;12.152;2024-02-26T05:48:19;-3.50;99.90
24802;DHT22;12898;50.520;12.152;2024-02-26T05:50:45;-3.40;99.90
24802;DHT22;12898;50.520;12.152;2024-02-26T05:53:11;-3.40;99.90
24802;DHT22;12898;50.520;12.152;2024-02-26T05:55:37;-3.40;99.90
24802;DHT22;12898;50.520;12.152;2024-02-26T05:58:03;-3.40;99.90
24802;DHT22;12898;50.520;12.152;2024-02-26T06:00:29;-3.40;99.90
24802;DHT22;12898;50.520;12.152;2024-02-26T06:02:55;-3.30;99.90
24802;DHT22;12898;50.520;12.152;2024-02-26T06:05:21;-3.30;99.90
24802;DHT22;12898;50.520;12.152;2024-02-26T06:07:46;-3.30;99.90
24802;DHT22;12898;50.520;12.152;2024-02-26T06:10:12;-3.30;99.90
24802;DHT22;12898;50.520;12.152;2024-02-26T06:12:39;-3.20;99.90
24802;DHT22;12898;50.520;12.152;2024-02-26T06:15:06;-3.20;99.90
24802;DHT22;12898;50.520;12.152;2024-02-26T06:17:32;-3.10;99.90
24802;DHT22;12898;50.520;12.152;2024-02-26T06:19:59;-3.10;99.90
24802;DHT22;12898;50.520;12.152;2024-02-26T06:22:25;-3.10;99.90
24802;DHT22;12898;50.520;12.152;2024-02-26T06:24:51;-3.10;99.90
24802;DHT22;12898;50.520;12.152;2024-02-26T06:27:17;-3.00;99.90
24802;DHT22;12898;50.520;12.152;2024-02-26T06:29:43;-3.00;99.90
24802;DHT22;12898;50.520;12.152;2024-02-26T06:32:08;-2.90;99.90
24802;DHT22;12898;50.520;12.152;2024-02-26T06:34:34;-2.80;99.90
24802;DHT22;12898;50.520;12.152;2024-02-26T06:37:00;-2.70;99.90
24802;DHT22;12898;50.520;12.152;2024-02-26T06:39:26;-2.50;99.90
24802;DHT22;12898;50.520;12.152;2024-02-26T06:41:52;-2.40;99.90
24802;DHT22;12898;50.520;12.152;2024-02-26T06:44:25;-2.30;99.90
24802;DHT22;12898;50.520;12.152;2024-02-26T06:46:51;-2.10;99.90
24802;DHT22;12898;50.520;12.152;2024-02-26T06:49:17;-2.00;99.90
24802;DHT22;12898;50.520;12.152;2024-02-26T06:51:43;-1.80;99.90
24802;DHT22;12898;50.520;12.152;2024-02-26T06:54:08;-1.70;99.90
24802;DHT22;12898;50.520;12.152;2024-02-26T06:56:35;-1.60;99.90
24802;DHT22;12898;50.520;12.152;2024-02-26T06:59:00;-1.50;99.90
24802;DHT22;12898;50.520;12.152;2024-02-26T07:01:26;-1.30;99.90
24802;DHT22;12898;50.520;12.152;2024-02-26T07:03:52;-1.20;99.90
24802;DHT22;12898;50.520;12.152;2024-02-26T07:06:18;-1.00;99.90
24802;DHT22;12898;50.520;12.152;2024-02-26T07:08:43;-1.00;99.90
24802;DHT22;12898;50.520;12.152;2024-02-26T07:11:10;-0.90;99.90
24802;DHT22;12898;50.520;12.152;2024-02-26T07:13:36;-0.80;99.90
24802;DHT22;12898;50.520;12.152;2024-02-26T07:16:02;-0.70;99.90
24802;DHT22;12898;50.520;12.152;2024-02-26T07:18:28;-0.60;99.90
24802;DHT22;12898;50.520;12.152;2024-02-26T07:20:54;-0.60;99.90
24802;DHT22;12898;50.520;12.152;2024-02-26T07:23:19;-0.50;99.90
24802;DHT22;12898;50.520;12.152;2024-02-26T07:25:45;-0.50;99.90
24802;DHT22;12898;50.520;12.152;2024-02-26T07:28:14;-0.40;99.90
24802;DHT22;12898;50.520;12.152;2024-02-26T07:30:40;-0.30;99.90
24802;DHT22;12898;50.520;12.152;2024-02-26T07:33:05;-0.10;99.90
24802;DHT22;12898;50.520;12.152;2024-02-26T07:35:32;0.10;99.90
24802;DHT22;12898;50.520;12.152;2024-02-26T07:37:58;0.30;99.90
24802;DHT22;12898;50.520;12.152;2024-02-26T07:40:24;0.50;99.90
24802;DHT22;12898;50.520;12.152;2024-02-26T07:42:50;0.70;99.90
24802;DHT22;12898;50.520;12.152;2024-02-26T07:45:16;0.90;99.90
24802;DHT22;12898;50.520;12.152;2024-02-26T07:47:45;1.10;99.90
24802;DHT22;12898;50.520;12.152;2024-02-26T07:50:12;1.30;99.90
24802;DHT22;12898;50.520;12.152;2024-02-26T07:52:38;1.50;99.90
24802;DHT22;12898;50.520;12.152;2024-02-26T07:55:04;1.70;99.90
24802;DHT22;12898;50.520;12.152;2024-02-26T07:57:32;1.90;99.90
24802;DHT22;12898;50.520;12.152;2024-02-26T07:59:59;2.20;99.90
24802;DHT22;12898;50.520;12.152;2024-02-26T08:02:25;2.40;99.90
24802;DHT22;12898;50.520;12.152;2024-02-26T08:04:51;2.50;99.90
24802;DHT22;12898;50.520;12.152;2024-02-26T08:07:16;2.60;99.90
24802;DHT22;12898;50.520;12.152;2024-02-26T08:09:42;2.70;99.90
24802;DHT22;12898;50.520;12.152;2024-02-26T08:12:08;2.80;99.90
24802;DHT22;12898;50.520;12.152;2024-02-26T08:14:34;2.90;99.90
24802;DHT22;12898;50.520;12.152;2024-02-26T08:17:00;3.00;99.90
24802;DHT22;12898;50.520;12.152;2024-02-26T08:19:26;3.10;99.90
24802;DHT22;12898;50.520;12.152;2024-02-26T08:21:52;3.20;99.90
24802;DHT22;12898;50.520;12.152;2024-02-26T08:24:18;3.30;99.90
24802;DHT22;12898;50.520;12.152;2024-02-26T08:26:44;3.40;99.90
24802;DHT22;12898;50.520;12.152;2024-02-26T08:29:10;3.50;99.90
24802;DHT22;12898;50.520;12.152;2024-02-26T08:31:35;3.60;99.90
24802;DHT22;12898;50.520;12.152;2024-02-26T08:34:03;3.60;99.90
24802;DHT22;12898;50.520;12.152;2024-02-26T08:36:31;3.70;99.90
24802;DHT22;12898;50.520;12.152;2024-02-26T08:38:58;3.70;99.90
24802;DHT22;12898;50.520;12.152;2024-02-26T08:41:24;3.80;99.90
24802;DHT22;12898;50.520;12.152;2024-02-26T08:43:50;3.90;99.90
24802;DHT22;12898;50.520;12.152;2024-02-26T08:46:15;3.90;99.90
24802;DHT22;12898;50.520;12.152;2024-02-26T08:48:42;4.00;99.90
24802;DHT22;12898;50.520;12.152;2024-02-26T08:51:08;4.00;99.90
24802;DHT22;12898;50.520;12.152;2024-02-26T08:53:38;4.00;99.90
24802;DHT22;12898;50.520;12.152;2024-02-26T08:56:04;4.10;99.90
24802;DHT22;12898;50.520;12.152;2024-02-26T08:58:30;4.20;99.90
24802;DHT22;12898;50.520;12.152;2024-02-26T09:00:56;4.20;99.90
24802;DHT22;12898;50.520;12.152;2024-02-26T09:03:22;4.30;99.90
24802;DHT22;12898;50.520;12.152;2024-02-26T09:05:48;4.30;99.90
24802;DHT22;12898;50.520;12.152;2024-02-26T09:08:14;4.40;99.90
24802;DHT22;12898;50.520;12.152;2024-02-26T09:10:40;4.40;99.90
24802;DHT22;12898;50.520;12.152;2024-02-26T09:13:06;4.50;99.90
24802;DHT22;12898;50.520;12.152;2024-02-26T09:15:32;4.60;99.90
24802;DHT22;12898;50.520;12.152;2024-02-26T09:17:58;4.80;99.90
24802;DHT22;12898;50.520;12.152;2024-02-26T09:20:24;5.00;99.90
24802;DHT22;12898;50.520;12.152;2024-02-26T09:22:50;5.20;99.90
24802;DHT22;12898;50.520;12.152;2024-02-26T09:25:17;5.50;99.90
24802;DHT22;12898;50.520;12.152;2024-02-26T09:27:46;5.80;99.90
24802;DHT22;12898;50.520;12.152;2024-02-26T09:30:13;6.10;99.90
24802;DHT22;12898;50.520;12.152;2024-02-26T09:32:39;6.20;99.90
24802;DHT22;12898;50.520;12.152;2024-02-26T09:35:08;6.40;99.90
24802;DHT22;12898;50.520;12.152;2024-02-26T09:37:34;6.60;99.90
24802;DHT22;12898;50.520;12.152;2024-02-26T09:40:02;6.80;99.90
24802;DHT22;12898;50.520;12.152;2024-02-26T09:42:31;7.10;99.90
24802;DHT22;12898;50.520;12.152;2024-02-26T09:45:00;7.40;99.90
24802;DHT22;12898;50.520;12.152;2024-02-26T09:47:33;7.70;99.90
24802;DHT22;12898;50.520;12.152;2024-02-26T09:50:01;8.10;99.90
24802;DHT22;12898;50.520;12.152;2024-02-26T09:52:29;8.40;99.90
24802;DHT22;12898;50.520;12.152;2024-02-26T09:54:56;8.60;99.90
24802;DHT22;12898;50.520;12.152;2024-02-26T09:57:22;8.80;99.90
24802;DHT22;12898;50.520;12.152;2024-02-26T09:59:51;8.90;99.90
24802;DHT22;12898;50.520;12.152;2024-02-26T10:02:20;9.10;99.90
24802;DHT22;12898;50.520;12.152;2024-02-26T10:04:47;9.30;99.90
24802;DHT22;12898;50.520;12.152;2024-02-26T10:07:16;9.60;99.90
24802;DHT22;12898;50.520;12.152;2024-02-26T10:09:42;10.00;99.90
24802;DHT22;12898;50.520;12.152;2024-02-26T10:12:10;10.30;99.90
24802;DHT22;12898;50.520;12.152;2024-02-26T10:14:41;10.60;99.90
24802;DHT22;12898;50.520;12.152;2024-02-26T10:17:07;10.80;99.90
24802;DHT22;12898;50.520;12.152;2024-02-26T10:19:35;10.90;99.90
24802;DHT22;12898;50.520;12.152;2024-02-26T10:22:01;10.90;99.90
24802;DHT22;12898;50.520;12.152;2024-02-26T10:24:29;11.00;99.90
24802;DHT22;12898;50.520;12.152;2024-02-26T10:26:56;11.00;99.90
24802;DHT22;12898;50.520;12.152;2024-02-26T10:29:24;10.80;99.90
24802;DHT22;12898;50.520;12.152;2024-02-26T10:31:51;10.70;99.90
24802;DHT22;12898;50.520;12.152;2024-02-26T10:34:20;10.70;99.90
24802;DHT22;12898;50.520;12.152;2024-02-26T10:36:46;10.70;99.90
24802;DHT22;12898;50.520;12.152;2024-02-26T10:39:12;10.70;99.90
24802;DHT22;12898;50.520;12.152;2024-02-26T10:41:43;10.80;99.90
24802;DHT22;12898;50.520;12.152;2024-02-26T10:44:09;10.80;99.80
24802;DHT22;12898;50.520;12.152;2024-02-26T10:46:40;10.90;99.90
24802;DHT22;12898;50.520;12.152;2024-02-26T10:49:13;11.10;99.70
24802;DHT22;12898;50.520;12.152;2024-02-26T10:51:43;11.30;99.50
24802;DHT22;12898;50.520;12.152;2024-02-26T10:54:12;11.30;98.60
24802;DHT22;12898;50.520;12.152;2024-02-26T10:56:42;11.40;98.60
24802;DHT22;12898;50.520;12.152;2024-02-26T10:59:09;11.50;97.40
24802;DHT22;12898;50.520;12.152;2024-02-26T11:01:36;11.50;97.70
24802;DHT22;12898;50.520;12.152;2024-02-26T11:04:06;11.60;96.80
24802;DHT22;12898;50.520;12.152;2024-02-26T11:06:34;11.70;95.10
24802;DHT22;12898;50.520;12.152;2024-02-26T11:09:02;11.60;93.90
24802;DHT22;12898;50.520;12.152;2024-02-26T11:11:30;11.50;94.10
24802;DHT22;12898;50.520;12.152;2024-02-26T11:14:01;11.50;93.80
24802;DHT22;12898;50.520;12.152;2024-02-26T11:16:29;11.50;94.60
24802;DHT22;12898;50.520;12.152;2024-02-26T11:18:56;11.50;95.20
24802;DHT22;12898;50.520;12.152;2024-02-26T11:21:22;11.50;94.50
24802;DHT22;12898;50.520;12.152;2024-02-26T11:23:54;11.50;94.20
24802;DHT22;12898;50.520;12.152;2024-02-26T11:26:21;11.50;93.80
24802;DHT22;12898;50.520;12.152;2024-02-26T11:28:48;11.60;94.20
24802;DHT22;12898;50.520;12.152;2024-02-26T11:31:15;11.60;93.60
24802;DHT22;12898;50.520;12.152;2024-02-26T11:33:40;11.70;94.30
24802;DHT22;12898;50.520;12.152;2024-02-26T11:36:10;11.80;93.40
24802;DHT22;12898;50.520;12.152;2024-02-26T11:38:37;12.00;93.30
24802;DHT22;12898;50.520;12.152;2024-02-26T11:41:04;12.20;92.60
24802;DHT22;12898;50.520;12.152;2024-02-26T11:43:50;12.40;89.60
24802;DHT22;12898;50.520;12.152;2024-02-26T11:46:31;12.40;90.20
24802;DHT22;12898;50.520;12.152;2024-02-26T11:51:55;13.00;88.60
24802;DHT22;12898;50.520;12.152;2024-02-26T11:55:00;13.20;88.00
24802;DHT22;12898;50.520;12.152;2024-02-26T11:57:27;13.50;86.80
24802;DHT22;12898;50.520;12.152;2024-02-26T12:02:57;13.50;82.10
24802;DHT22;12898;50.520;12.152;2024-02-26T12:05:26;13.60;85.30
24802;DHT22;12898;50.520;12.152;2024-02-26T12:08:14;13.60;85.30
24802;DHT22;12898;50.520;12.152;2024-02-26T12:10:42;13.60;83.70
24802;DHT22;12898;50.520;12.152;2024-02-26T12:13:14;13.60;84.60
24802;DHT22;12898;50.520;12.152;2024-02-26T12:15:45;13.50;85.00
24802;DHT22;12898;50.520;12.152;2024-02-26T12:18:18;13.40;82.90
24802;DHT22;12898;50.520;12.152;2024-02-26T12:20:46;13.30;83.70
24802;DHT22;12898;50.520;12.152;2024-02-26T12:23:16;13.30;84.20
24802;DHT22;12898;50.520;12.152;2024-02-26T12:25:44;13.20;84.30
24802;DHT22;12898;50.520;12.152;2024-02-26T12:28:14;13.20;85.60
24802;DHT22;12898;50.520;12.152;2024-02-26T12:30:40;13.20;84.60
24802;DHT22;12898;50.520;12.152;2024-02-26T12:33:06;13.10;81.60
24802;DHT22;12898;50.520;12.152;2024-02-26T12:35:34;13.00;82.80
24802;DHT22;12898;50.520;12.152;2024-02-26T12:38:00;13.00;85.00
24802;DHT22;12898;50.520;12.152;2024-02-26T12:40:26;13.10;81.40
24802;DHT22;12898;50.520;12.152;2024-02-26T12:42:54;13.10;82.00
24802;DHT22;12898;50.520;12.152;2024-02-26T12:45:20;13.10;82.80
24802;DHT22;12898;50.520;12.152;2024-02-26T12:47:46;13.20;83.80
24802;DHT22;12898;50.520;12.152;2024-02-26T12:50:13;13.30;81.70
24802;DHT22;12898;50.520;12.152;2024-02-26T12:52:43;13.30;83.20
24802;DHT22;12898;50.520;12.152;2024-02-26T12:55:14;13.30;83.20
24802;DHT22;12898;50.520;12.152;2024-02-26T12:57:42;13.40;82.40
24802;DHT22;12898;50.520;12.152;2024-02-26T13:00:14;13.40;81.80
24802;DHT22;12898;50.520;12.152;2024-02-26T13:02:45;13.40;82.40
24802;DHT22;12898;50.520;12.152;2024-02-26T13:05:13;13.60;83.60
24802;DHT22;12898;50.520;12.152;2024-02-26T13:07:43;13.80;84.40
24802;DHT22;12898;50.520;12.152;2024-02-26T13:10:10;14.00;82.60
24802;DHT22;12898;50.520;12.152;2024-02-26T13:12:49;14.30;81.90
24802;DHT22;12898;50.520;12.152;2024-02-26T13:15:17;14.60;80.20
24802;DHT22;12898;50.520;12.152;2024-02-26T13:17:45;14.80;77.90
24802;DHT22;12898;50.520;12.152;2024-02-26T13:20:11;14.80;76.80
24802;DHT22;12898;50.520;12.152;2024-02-26T13:22:38;14.70;77.80
24802;DHT22;12898;50.520;12.152;2024-02-26T13:25:04;14.60;76.20
24802;DHT22;12898;50.520;12.152;2024-02-26T13:27:33;14.60;77.80
24802;DHT22;12898;50.520;12.152;2024-02-26T13:30:12;14.70;76.90
24802;DHT22;12898;50.520;12.152;2024-02-26T13:32:41;14.60;76.10
24802;DHT22;12898;50.520;12.152;2024-02-26T13:35:09;14.40;76.70
24802;DHT22;12898;50.520;12.152;2024-02-26T13:37:37;14.20;78.20
24802;DHT22;12898;50.520;12.152;2024-02-26T13:42:34;13.50;79.90
24802;DHT22;12898;50.520;12.152;2024-02-26T13:45:00;13.30;79.60
24802;DHT22;12898;50.520;12.152;2024-02-26T13:47:27;13.10;79.20
24802;DHT22;12898;50.520;12.152;2024-02-26T13:49:52;13.00;80.70
24802;DHT22;12898;50.520;12.152;2024-02-26T13:52:18;13.30;80.10
24802;DHT22;12898;50.520;12.152;2024-02-26T13:54:45;13.80;81.70
24802;DHT22;12898;50.520;12.152;2024-02-26T13:57:11;14.30;79.50
24802;DHT22;12898;50.520;12.152;2024-02-26T13:59:37;14.80;78.60
24802;DHT22;12898;50.520;12.152;2024-02-26T14:02:07;14.90;74.20
24802;DHT22;12898;50.520;12.152;2024-02-26T14:04:33;15.00;74.00
24802;DHT22;12898;50.520;12.152;2024-02-26T14:06:58;15.00;74.20
24802;DHT22;12898;50.520;12.152;2024-02-26T14:09:24;14.90;75.90
24802;DHT22;12898;50.520;12.152;2024-02-26T14:11:50;15.00;76.70
24802;DHT22;12898;50.520;12.152;2024-02-26T14:14:16;15.20;75.90
24802;DHT22;12898;50.520;12.152;2024-02-26T14:16:41;15.40;76.40
24802;DHT22;12898;50.520;12.152;2024-02-26T14:19:07;15.70;75.70
24802;DHT22;12898;50.520;12.152;2024-02-26T14:21:33;15.80;74.60
24802;DHT22;12898;50.520;12.152;2024-02-26T14:23:58;15.90;74.90
24802;DHT22;12898;50.520;12.152;2024-02-26T14:26:24;15.90;73.10
24802;DHT22;12898;50.520;12.152;2024-02-26T14:28:50;16.00;72.60
24802;DHT22;12898;50.520;12.152;2024-02-26T14:31:19;15.90;73.20
24802;DHT22;12898;50.520;12.152;2024-02-26T14:33:45;15.70;73.20
24802;DHT22;12898;50.520;12.152;2024-02-26T14:36:11;15.40;74.60
24802;DHT22;12898;50.520;12.152;2024-02-26T14:38:37;15.10;76.50
24802;DHT22;12898;50.520;12.152;2024-02-26T14:41:04;14.80;76.20
24802;DHT22;12898;50.520;12.152;2024-02-26T14:43:31;14.40;78.50
24802;DHT22;12898;50.520;12.152;2024-02-26T14:45:58;14.20;79.30
24802;DHT22;12898;50.520;12.152;2024-02-26T14:48:24;14.20;80.30
24802;DHT22;12898;50.520;12.152;2024-02-26T14:50:50;14.30;79.50
24802;DHT22;12898;50.520;12.152;2024-02-26T14:53:17;14.40;79.80
24802;DHT22;12898;50.520;12.152;2024-02-26T14:55:43;14.50;79.40
24802;DHT22;12898;50.520;12.152;2024-02-26T14:58:09;14.50;80.00
24802;DHT22;12898;50.520;12.152;2024-02-26T15:00:36;14.40;79.40
24802;DHT22;12898;50.520;12.152;2024-02-26T15:03:03;14.20;80.40
24802;DHT22;12898;50.520;12.152;2024-02-26T15:05:29;13.90;80.20
24802;DHT22;12898;50.520;12.152;2024-02-26T15:07:55;13.60;82.20
24802;DHT22;12898;50.520;12.152;2024-02-26T15:10:21;13.40;83.30
24802;DHT22;12898;50.520;12.152;2024-02-26T15:12:46;13.30;84.50
24802;DHT22;12898;50.520;12.152;2024-02-26T15:15:13;13.20;84.30
24802;DHT22;12898;50.520;12.152;2024-02-26T15:17:39;13.00;85.60
24802;DHT22;12898;50.520;12.152;2024-02-26T15:20:05;12.90;86.30
24802;DHT22;12898;50.520;12.152;2024-02-26T15:22:33;12.70;87.40
24802;DHT22;12898;50.520;12.152;2024-02-26T15:24:59;12.50;87.40